Time;durP1;ratioP1;P1;durP2;ratioP2;P2;SDS_P1;SDS_P2;PMS_P1;PMS_P2;Temp;Humidity;BMP_temperature;BMP_pressure;BME280_temperature;BME280_humidity;BME280_pressure;Samples;Min_cycle;Max_cycle;Signal;HPM_P1;HPM_P2
2023/08/20 00:01:04;;;;;;;45.33;28.00;;;;;;;;;;5132734;27;20095;-71
2023/08/20 00:03:30;;;;;;;40.35;25.80;;;;;;;;;;5132793;27;20520;-70
2023/08/20 00:05:56;;;;;;;47.83;28.77;;;;;;;;;;5132237;27;20027;-71
2023/08/20 00:08:22;;;;;;;56.05;26.08;;;;;;;;;;5097540;27;20216;-69
2023/08/20 00:10:49;;;;;;;44.05;24.17;;;;;;;;;;5132249;27;20193;-71
2023/08/20 00:13:14;;;;;;;43.45;22.85;;;;;;;;;;5132439;27;20054;-71
2023/08/20 00:15:41;;;;;;;34.00;22.58;;;;;;;;;;5132083;27;20496;-71
2023/08/20 00:18:07;;;;;;;34.90;21.77;;;;;;;;;;5114256;27;20034;-71
2023/08/20 00:20:33;;;;;;;38.30;19.27;;;;;;;;;;5132301;27;20390;-71
2023/08/20 00:22:59;;;;;;;35.42;21.13;;;;;;;;;;5132072;27;20039;-70
2023/08/20 00:25:25;;;;;;;27.23;19.80;;;;;;;;;;5132217;27;20046;-70
2023/08/20 00:27:51;;;;;;;29.42;17.20;;;;;;;;;;5113745;27;20109;-71
2023/08/20 00:30:17;;;;;;;19.40;16.30;;;;;;;;;;5113695;27;20031;-71
2023/08/20 00:32:44;;;;;;;27.17;16.33;;;;;;;;;;5113830;27;20031;-71
2023/08/20 00:35:11;;;;;;;25.58;16.83;;;;;;;;;;5132206;27;20047;-70
2023/08/20 00:37:37;;;;;;;19.95;17.40;;;;;;;;;;5113622;27;20417;-72
2023/08/20 00:40:05;;;;;;;23.63;18.05;;;;;;;;;;5113719;27;20035;-73
2023/08/20 00:42:31;;;;;;;34.15;19.48;;;;;;;;;;5132050;27;20190;-69
2023/08/20 00:44:57;;;;;;;31.10;19.38;;;;;;;;;;5113279;27;20031;-69
2023/08/20 00:47:23;;;;;;;36.50;20.85;;;;;;;;;;5113427;27;20468;-71
2023/08/20 00:49:49;;;;;;;40.80;22.05;;;;;;;;;;5113246;27;20489;-70
2023/08/20 00:52:18;;;;;;;40.60;22.02;;;;;;;;;;5131837;27;20123;-70
2023/08/20 00:54:47;;;;;;;32.40;20.92;;;;;;;;;;5131223;27;20031;-70
2023/08/20 00:57:17;;;;;;;48.58;22.25;;;;;;;;;;5131604;27;20143;-71
2023/08/20 00:59:43;;;;;;;;;;;;;;;;;;5114018;27;20035;-69
2023/08/20 01:02:08;;;;;;;47.45;21.70;;;;;;;;;;5096614;27;19929;-71
2023/08/20 01:04:34;;;;;;;38.53;23.77;;;;;;;;;;5114080;27;20046;-70
2023/08/20 01:07:19;;;;;;;38.60;21.15;;;;;;;;;;5131863;27;20592;-72
2023/08/20 01:09:50;;;;;;;38.33;22.33;;;;;;;;;;5113363;27;20528;-72
2023/08/20 01:12:16;;;;;;;43.10;21.65;;;;;;;;;;5113255;27;20031;-71
2023/08/20 01:14:42;;;;;;;39.35;22.95;;;;;;;;;;5112759;27;20051;-70
2023/08/20 01:17:08;;;;;;;36.40;22.70;;;;;;;;;;5131765;27;20054;-70
2023/08/20 01:19:34;;;;;;;30.50;19.65;;;;;;;;;;5096328;27;20034;-71
2023/08/20 01:22:00;;;;;;;35.97;20.98;;;;;;;;;;5112958;27;20416;-71
2023/08/20 01:24:39;;;;;;;28.85;21.67;;;;;;;;;;5131464;27;20031;-69
2023/08/20 01:27:09;;;;;;;51.40;22.03;;;;;;;;;;5134481;27;20106;-71
2023/08/20 01:29:35;;;;;;;45.58;22.25;;;;;;;;;;5116878;28;20122;-72
2023/08/20 01:32:03;;;;;;;44.08;21.73;;;;;;;;;;5116704;27;20073;-69
2023/08/20 01:34:29;;;;;;;38.22;20.98;;;;;;;;;;5131111;27;20039;-71
2023/08/20 01:36:55;;;;;;;33.38;22.38;;;;;;;;;;5112846;28;20039;-70
2023/08/20 01:39:21;;;;;;;32.42;21.38;;;;;;;;;;5112592;27;20036;-70
2023/08/20 01:41:47;;;;;;;34.55;21.40;;;;;;;;;;5111727;27;20053;-70
2023/08/20 01:44:13;;;;;;;36.17;19.60;;;;;;;;;;5130951;27;20038;-71
2023/08/20 01:46:39;;;;;;;36.58;20.85;;;;;;;;;;5131186;27;20039;-71
2023/08/20 01:49:05;;;;;;;45.13;21.25;;;;;;;;;;5130649;27;20035;-71
2023/08/20 01:51:32;;;;;;;30.73;19.95;;;;;;;;;;5130947;27;20039;-72
2023/08/20 01:53:58;;;;;;;46.88;20.23;;;;;;;;;;5112460;27;20092;-70
2023/08/20 01:56:24;;;;;;;32.67;19.77;;;;;;;;;;5130572;27;20122;-70
2023/08/20 01:58:51;;;;;;;27.92;19.95;;;;;;;;;;5112338;27;20053;-71
2023/08/20 02:01:17;;;;;;;29.80;21.45;;;;;;;;;;5112545;27;20082;-71
2023/08/20 02:03:43;;;;;;;36.05;20.73;;;;;;;;;;5112215;27;20036;-71
2023/08/20 02:06:09;;;;;;;31.27;20.92;;;;;;;;;;5130753;27;20120;-72
2023/08/20 02:08:35;;;;;;;30.33;20.27;;;;;;;;;;5130866;27;20047;-71
2023/08/20 02:11:02;;;;;;;30.27;19.63;;;;;;;;;;5130410;27;20035;-70
2023/08/20 02:13:28;;;;;;;28.33;19.63;;;;;;;;;;5130622;27;20055;-70
2023/08/20 02:16:01;;;;;;;35.72;20.30;;;;;;;;;;5111873;28;20122;-71
2023/08/20 02:18:47;;;;;;;31.23;20.23;;;;;;;;;;5100984;28;20039;-70
2023/08/20 02:21:13;;;;;;;33.20;19.75;;;;;;;;;;5130883;27;20046;-72
2023/08/20 02:23:39;;;;;;;29.02;20.15;;;;;;;;;;5130961;27;20083;-70
2023/08/20 02:26:06;;;;;;;30.00;20.15;;;;;;;;;;5130396;27;20080;-70
2023/08/20 02:28:34;;;;;;;27.17;20.17;;;;;;;;;;5112403;27;20031;-70
2023/08/20 02:31:01;;;;;;;30.98;20.65;;;;;;;;;;5130166;27;20058;-70
2023/08/20 02:33:27;;;;;;;39.30;21.60;;;;;;;;;;5112321;28;20160;-71
2023/08/20 02:35:53;;;;;;;27.63;19.73;;;;;;;;;;5130201;27;20054;-71
2023/08/20 02:38:21;;;;;;;34.85;20.27;;;;;;;;;;5130699;27;20047;-72
2023/08/20 02:40:47;;;;;;;33.08;20.35;;;;;;;;;;5130154;27;20114;-71
2023/08/20 02:43:13;;;;;;;29.60;19.67;;;;;;;;;;5130432;27;20038;-71
2023/08/20 02:45:42;;;;;;;25.95;20.05;;;;;;;;;;5130296;27;20047;-71
2023/08/20 02:48:09;;;;;;;24.77;19.38;;;;;;;;;;5130184;27;20060;-70
2023/08/20 02:50:35;;;;;;;33.65;20.73;;;;;;;;;;5130431;27;20501;-71
2023/08/20 02:53:01;;;;;;;30.70;20.27;;;;;;;;;;5130242;27;20043;-71
2023/08/20 02:55:28;;;;;;;39.97;24.77;;;;;;;;;;5115374;27;20049;-72
2023/08/20 02:57:54;;;;;;;40.25;21.48;;;;;;;;;;5098694;27;20482;-71
2023/08/20 03:00:20;;;;;;;37.30;21.65;;;;;;;;;;5115580;27;20110;-71
2023/08/20 03:02:46;;;;;;;38.53;20.17;;;;;;;;;;5115335;27;20047;-71
2023/08/20 03:05:12;;;;;;;36.80;20.35;;;;;;;;;;5115467;27;20038;-71
2023/08/20 03:07:38;;;;;;;31.95;20.42;;;;;;;;;;5115376;27;20031;-71
2023/08/20 03:10:04;;;;;;;33.40;18.85;;;;;;;;;;5133356;27;20397;-70
2023/08/20 03:12:30;;;;;;;32.70;19.05;;;;;;;;;;5116003;27;20059;-71
2023/08/20 03:14:56;;;;;;;33.75;19.23;;;;;;;;;;5134556;27;20047;-72
2023/08/20 03:17:22;;;;;;;35.40;20.67;;;;;;;;;;5116414;27;20035;-69
2023/08/20 03:19:55;;;;;;;36.63;23.17;;;;;;;;;;5136315;27;20031;-71
2023/08/20 03:22:21;;;;;;;30.48;21.23;;;;;;;;;;5134852;27;20536;-71
2023/08/20 03:24:47;;;;;;;35.35;20.60;;;;;;;;;;5134864;27;20035;-71
2023/08/20 03:27:13;;;;;;;40.55;21.17;;;;;;;;;;5133843;27;20394;-71
2023/08/20 03:29:39;;;;;;;36.15;21.33;;;;;;;;;;5133527;27;20039;-71
2023/08/20 03:32:05;;;;;;;37.20;20.75;;;;;;;;;;5114962;27;20039;-69
2023/08/20 03:34:31;;;;;;;34.58;21.48;;;;;;;;;;5097900;27;20061;-69
2023/08/20 03:36:57;;;;;;;36.42;21.55;;;;;;;;;;5097530;27;20530;-70
2023/08/20 03:39:23;;;;;;;40.85;21.63;;;;;;;;;;5133188;27;20126;-71
2023/08/20 03:41:52;;;;;;;45.38;21.63;;;;;;;;;;5133064;27;20126;-70
2023/08/20 03:44:18;;;;;;;33.30;22.08;;;;;;;;;;5114817;27;20084;-70
2023/08/20 03:46:44;;;;;;;38.85;22.67;;;;;;;;;;5133108;27;20062;-70
2023/08/20 03:49:10;;;;;;;37.13;22.25;;;;;;;;;;5132927;27;20126;-71
2023/08/20 03:51:36;;;;;;;30.95;22.23;;;;;;;;;;5133066;27;20084;-70
2023/08/20 03:54:02;;;;;;;26.88;21.15;;;;;;;;;;5132773;27;20035;-71
2023/08/20 03:56:28;;;;;;;25.92;20.40;;;;;;;;;;5132847;27;20035;-71
2023/08/20 03:58:54;;;;;;;30.73;20.52;;;;;;;;;;5132641;27;20034;-71
2023/08/20 04:01:20;;;;;;;23.58;18.75;;;;;;;;;;5132912;27;20084;-71
2023/08/20 04:03:47;;;;;;;22.60;19.08;;;;;;;;;;5132494;27;20031;-70
2023/08/20 04:06:15;;;;;;;19.27;17.33;;;;;;;;;;5132720;27;20465;-71
2023/08/20 04:08:41;;;;;;;20.83;17.40;;;;;;;;;;5132706;27;20062;-70
2023/08/20 04:11:07;;;;;;;19.45;17.13;;;;;;;;;;5114159;27;20069;-70
2023/08/20 04:13:33;;;;;;;23.30;16.90;;;;;;;;;;5114391;27;20051;-70
2023/08/20 04:15:59;;;;;;;19.35;16.30;;;;;;;;;;5132411;27;20031;-71
2023/08/20 04:18:25;;;;;;;12.80;11.63;;;;;;;;;;5132561;27;20413;-71
2023/08/20 04:20:53;;;;;;;18.95;15.73;;;;;;;;;;5113785;27;20034;-71
2023/08/20 04:23:19;;;;;;;17.10;15.38;;;;;;;;;;5114033;27;20126;-71
2023/08/20 04:25:45;;;;;;;14.93;13.50;;;;;;;;;;5132203;27;20035;-70
2023/08/20 04:28:14;;;;;;;18.55;13.57;;;;;;;;;;5132107;27;20032;-71
2023/08/20 04:30:40;;;;;;;14.75;13.35;;;;;;;;;;5113793;27;20516;-71
2023/08/20 04:33:06;;;;;;;14.45;13.15;;;;;;;;;;5114300;27;20405;-70
2023/08/20 04:35:33;;;;;;;17.67;15.60;;;;;;;;;;5115846;27;20031;-71
2023/08/20 04:37:59;;;;;;;21.08;15.20;;;;;;;;;;5116304;27;20039;-71
2023/08/20 04:40:27;;;;;;;15.43;13.88;;;;;;;;;;5115937;27;20516;-71
2023/08/20 04:42:54;;;;;;;18.73;14.30;;;;;;;;;;5113884;27;20035;-69
2023/08/20 04:45:20;;;;;;;13.50;12.25;;;;;;;;;;5113768;27;20096;-70
2023/08/20 04:47:47;;;;;;;14.93;13.65;;;;;;;;;;5113899;27;20038;-71
2023/08/20 04:50:13;;;;;;;15.30;13.13;;;;;;;;;;5097957;27;20453;-70
2023/08/20 04:52:40;;;;;;;15.45;14.05;;;;;;;;;;5134689;27;20031;-71
2023/08/20 04:55:07;;;;;;;15.45;13.98;;;;;;;;;;5115381;27;20043;-71
2023/08/20 04:57:34;;;;;;;15.02;13.60;;;;;;;;;;5114736;27;20505;-70
2023/08/20 05:00:02;;;;;;;13.57;12.20;;;;;;;;;;5113823;27;20050;-68
2023/08/20 05:02:43;;;;;;;15.48;13.77;;;;;;;;;;5114457;27;20059;-70
2023/08/20 05:05:13;;;;;;;12.60;11.30;;;;;;;;;;5113077;27;20035;-70
2023/08/20 05:07:39;;;;;;;14.13;12.82;;;;;;;;;;5096330;27;20046;-70
2023/08/20 05:10:05;;;;;;;14.95;12.65;;;;;;;;;;5112852;27;20035;-71
2023/08/20 05:12:31;;;;;;;14.13;12.05;;;;;;;;;;5113556;27;20123;-71
2023/08/20 05:14:57;;;;;;;13.25;12.02;;;;;;;;;;5112530;27;20129;-70
2023/08/20 05:17:24;;;;;;;12.15;11.05;;;;;;;;;;5112202;27;20481;-71
2023/08/20 05:19:49;;;;;;;11.18;10.25;;;;;;;;;;5112985;27;20063;-70
2023/08/20 05:22:15;;;;;;;11.27;10.38;;;;;;;;;;5130985;27;20039;-71
2023/08/20 05:24:41;;;;;;;11.30;10.25;;;;;;;;;;5131318;27;20509;-72
2023/08/20 05:27:09;;;;;;;11.23;10.32;;;;;;;;;;5112673;27;20569;-71
2023/08/20 05:29:35;;;;;;;13.15;11.90;;;;;;;;;;5112829;27;20046;-71
2023/08/20 05:32:02;;;;;;;10.80;10.00;;;;;;;;;;5112531;27;20043;-72
2023/08/20 05:34:28;;;;;;;10.85;10.05;;;;;;;;;;5112899;27;20039;-72
2023/08/20 05:36:54;;;;;;;10.45;9.55;;;;;;;;;;5130997;27;20417;-70
2023/08/20 05:39:20;;;;;;;11.73;9.98;;;;;;;;;;5096214;28;20046;-71
2023/08/20 05:41:46;;;;;;;13.45;10.48;;;;;;;;;;5095649;27;20038;-70
2023/08/20 05:44:12;;;;;;;11.57;10.57;;;;;;;;;;5112879;27;20062;-70
2023/08/20 05:46:37;;;;;;;12.10;10.52;;;;;;;;;;5112724;27;20035;-69
2023/08/20 05:49:03;;;;;;;16.20;11.52;;;;;;;;;;5112490;28;20119;-70
2023/08/20 05:51:35;;;;;;;11.82;10.88;;;;;;;;;;5112614;27;20043;-71
2023/08/20 05:54:01;;;;;;;13.48;11.23;;;;;;;;;;5130703;27;20099;-71
2023/08/20 05:56:27;;;;;;;16.73;11.25;;;;;;;;;;5130723;27;20043;-72
2023/08/20 05:58:53;;;;;;;12.40;11.30;;;;;;;;;;5112623;27;20404;-71
2023/08/20 06:01:19;;;;;;;12.20;11.30;;;;;;;;;;5112258;28;20041;-71
2023/08/20 06:03:45;;;;;;;12.93;11.02;;;;;;;;;;5112520;27;20039;-70
2023/08/20 06:06:11;;;;;;;11.05;10.15;;;;;;;;;;5112191;28;20039;-71
2023/08/20 06:08:37;;;;;;;11.60;10.40;;;;;;;;;;5130735;27;20401;-71
2023/08/20 06:11:03;;;;;;;10.32;9.43;;;;;;;;;;5130428;27;20497;-70
2023/08/20 06:13:28;;;;;;;11.02;9.90;;;;;;;;;;5130405;27;20043;-71
2023/08/20 06:15:54;;;;;;;11.25;10.07;;;;;;;;;;5130402;27;20075;-71
2023/08/20 06:18:20;;;;;;;11.00;9.88;;;;;;;;;;5130445;27;20043;-72
2023/08/20 06:20:46;;;;;;;10.38;9.32;;;;;;;;;;5112051;27;20088;-71
2023/08/20 06:23:13;;;;;;;10.68;9.60;;;;;;;;;;5112147;27;20410;-72
2023/08/20 06:25:40;;;;;;;9.57;8.77;;;;;;;;;;5130560;27;20027;-71
2023/08/20 06:28:06;;;;;;;10.02;9.30;;;;;;;;;;5132205;27;20023;-72
2023/08/20 06:30:32;;;;;;;9.90;9.00;;;;;;;;;;5116282;27;20042;-70
2023/08/20 06:32:58;;;;;;;10.05;9.25;;;;;;;;;;5134515;27;20035;-70
2023/08/20 06:35:24;;;;;;;12.73;9.95;;;;;;;;;;5134236;27;20047;-70
2023/08/20 06:37:50;;;;;;;10.75;9.35;;;;;;;;;;5116041;27;20045;-70
2023/08/20 06:40:16;;;;;;;11.60;10.57;;;;;;;;;;5134020;27;20038;-71
2023/08/20 06:42:45;;;;;;;11.82;10.80;;;;;;;;;;5116241;27;20552;-70
2023/08/20 06:45:11;;;;;;;11.88;10.35;;;;;;;;;;5134035;27;20189;-72
2023/08/20 06:47:37;;;;;;;12.38;10.60;;;;;;;;;;5134184;27;20454;-71
2023/08/20 06:50:04;;;;;;;12.32;11.02;;;;;;;;;;5133770;27;20034;-71
2023/08/20 06:52:30;;;;;;;12.60;10.30;;;;;;;;;;5134021;27;20062;-72
2023/08/20 06:54:56;;;;;;;12.35;11.15;;;;;;;;;;5115490;27;20034;-72
2023/08/20 06:57:23;;;;;;;10.90;9.90;;;;;;;;;;5133466;27;20039;-70
2023/08/20 06:59:49;;;;;;;9.77;8.98;;;;;;;;;;5115448;27;20041;-72
2023/08/20 07:02:15;;;;;;;11.63;9.10;;;;;;;;;;5133525;27;20110;-72
2023/08/20 07:04:41;;;;;;;10.98;9.20;;;;;;;;;;5133849;27;20043;-71
2023/08/20 07:07:08;;;;;;;10.15;9.20;;;;;;;;;;5133297;27;20122;-72
2023/08/20 07:09:33;;;;;;;10.27;8.93;;;;;;;;;;5133874;27;20031;-71
2023/08/20 07:11:59;;;;;;;11.93;10.93;;;;;;;;;;5133709;27;20565;-71
2023/08/20 07:14:26;;;;;;;11.73;10.25;;;;;;;;;;5133254;27;20122;-71
2023/08/20 07:16:53;;;;;;;13.00;11.68;;;;;;;;;;5133463;27;20039;-72
2023/08/20 07:19:19;;;;;;;11.90;10.68;;;;;;;;;;5133362;27;20037;-71
2023/08/20 07:21:45;;;;;;;15.00;11.60;;;;;;;;;;5098157;27;20438;-69
2023/08/20 07:24:11;;;;;;;12.40;11.30;;;;;;;;;;5133404;27;20038;-71
2023/08/20 07:26:37;;;;;;;13.35;12.02;;;;;;;;;;5133431;27;20031;-72
2023/08/20 07:29:03;;;;;;;10.43;8.82;;;;;;;;;;5114745;27;20027;-72
2023/08/20 07:31:30;;;;;;;9.45;8.52;;;;;;;;;;5133228;27;20031;-71
2023/08/20 07:33:56;;;;;;;9.02;8.23;;;;;;;;;;5115061;27;20027;-71
2023/08/20 07:36:24;;;;;;;9.57;8.55;;;;;;;;;;5132962;27;20046;-71
2023/08/20 07:38:51;;;;;;;9.18;8.52;;;;;;;;;;5097450;28;20130;-72
2023/08/20 07:41:17;;;;;;;8.32;7.53;;;;;;;;;;5132908;27;20339;-71
2023/08/20 07:43:43;;;;;;;9.10;8.30;;;;;;;;;;5098182;27;20027;-71
2023/08/20 07:46:09;;;;;;;9.02;8.18;;;;;;;;;;5133515;27;20052;-71
2023/08/20 07:48:35;;;;;;;8.98;8.07;;;;;;;;;;5116229;27;20084;-70
2023/08/20 07:51:04;;;;;;;9.27;8.40;;;;;;;;;;5133236;27;20039;-71
2023/08/20 07:53:30;;;;;;;9.10;8.18;;;;;;;;;;5133015;27;20536;-72
2023/08/20 07:55:57;;;;;;;8.57;7.72;;;;;;;;;;5114373;27;20043;-72
2023/08/20 07:58:26;;;;;;;8.48;7.78;;;;;;;;;;5114413;27;20493;-70
2023/08/20 08:00:51;;;;;;;11.45;8.30;;;;;;;;;;5132751;27;20034;-72
2023/08/20 08:03:17;;;;;;;17.88;9.18;;;;;;;;;;5132746;27;20035;-70
2023/08/20 08:05:49;;;;;;;9.63;8.73;;;;;;;;;;5132643;27;20437;-71
2023/08/20 08:08:16;;;;;;;9.52;8.27;;;;;;;;;;5114215;27;20123;-72
2023/08/20 08:10:44;;;;;;;10.95;9.13;;;;;;;;;;5132626;27;20521;-72
2023/08/20 08:13:11;;;;;;;10.00;9.10;;;;;;;;;;5132286;27;20627;-72
2023/08/20 08:15:39;;;;;;;10.35;9.35;;;;;;;;;;5132055;27;20509;-74
2023/08/20 08:18:05;;;;;;;9.98;9.00;;;;;;;;;;5132171;27;20540;-71
2023/08/20 08:20:32;;;;;;;10.40;9.50;;;;;;;;;;5132353;27;20062;-71
2023/08/20 08:22:59;;;;;;;10.40;9.48;;;;;;;;;;5132597;27;20122;-72
2023/08/20 08:25:25;;;;;;;12.27;9.43;;;;;;;;;;5132078;27;20554;-71
2023/08/20 08:27:51;;;;;;;10.93;9.85;;;;;;;;;;5132122;27;20084;-73
2023/08/20 08:30:16;;;;;;;11.80;10.35;;;;;;;;;;5131920;27;20455;-72
2023/08/20 08:32:42;;;;;;;11.05;9.80;;;;;;;;;;5113717;27;20061;-72
2023/08/20 08:35:10;;;;;;;11.30;9.35;;;;;;;;;;5131735;27;20444;-72
2023/08/20 08:37:35;;;;;;;10.90;8.60;;;;;;;;;;5132197;27;20501;-70
2023/08/20 08:40:05;;;;;;;13.43;9.00;;;;;;;;;;5113552;27;20035;-72
2023/08/20 08:42:33;;;;;;;16.33;9.57;;;;;;;;;;5131767;27;20035;-72
2023/08/20 08:45:00;;;;;;;14.40;11.35;;;;;;;;;;5131998;27;20529;-71
2023/08/20 08:47:26;;;;;;;17.27;9.70;;;;;;;;;;5131704;27;20037;-72
2023/08/20 08:49:52;;;;;;;11.32;9.65;;;;;;;;;;5131752;27;20031;-70
2023/08/20 08:52:19;;;;;;;9.40;8.30;;;;;;;;;;5131527;27;20027;-72
2023/08/20 08:54:46;;;;;;;8.90;8.07;;;;;;;;;;5131743;27;20086;-73
2023/08/20 08:57:12;;;;;;;10.38;8.32;;;;;;;;;;5113164;27;20070;-73
2023/08/20 08:59:39;;;;;;;8.70;7.80;;;;;;;;;;5131658;27;20402;-72
2023/08/20 09:02:09;;;;;;;8.50;7.60;;;;;;;;;;5131380;27;20517;-70
2023/08/20 09:04:37;;;;;;;7.60;6.90;;;;;;;;;;5113201;27;20065;-71
2023/08/20 09:07:04;;;;;;;7.50;6.90;;;;;;;;;;5131452;27;20048;-73
2023/08/20 09:09:31;;;;;;;8.98;6.75;;;;;;;;;;5131260;27;20039;-71
2023/08/20 09:11:57;;;;;;;7.70;6.85;;;;;;;;;;5131336;27;20062;-72
2023/08/20 09:14:29;;;;;;;7.28;6.65;;;;;;;;;;5130977;27;20054;-71
2023/08/20 09:16:56;;;;;;;9.40;6.47;;;;;;;;;;5131078;27;20517;-73
2023/08/20 09:19:22;;;;;;;8.30;6.63;;;;;;;;;;5112906;27;20059;-73
2023/08/20 09:21:49;;;;;;;7.97;7.20;;;;;;;;;;5130353;27;20150;-72
2023/08/20 09:24:15;;;;;;;7.78;7.18;;;;;;;;;;5130895;27;20023;-73
2023/08/20 09:26:45;;;;;;;8.77;7.45;;;;;;;;;;5112871;27;20093;-72
2023/08/20 09:29:11;;;;;;;10.00;7.22;;;;;;;;;;5130885;27;20027;-72
2023/08/20 09:31:38;;;;;;;7.93;7.10;;;;;;;;;;5112888;27;20043;-72
2023/08/20 09:34:04;;;;;;;7.55;6.78;;;;;;;;;;5112689;27;20058;-73
2023/08/20 09:36:33;;;;;;;7.13;6.50;;;;;;;;;;5130693;27;20051;-72
2023/08/20 09:39:00;;;;;;;7.70;7.05;;;;;;;;;;5112615;27;20023;-73
2023/08/20 09:41:26;;;;;;;7.78;5.60;;;;;;;;;;5130728;27;20088;-74
2023/08/20 09:43:56;;;;;;;7.22;6.63;;;;;;;;;;5130835;27;20046;-73
2023/08/20 09:46:22;;;;;;;6.97;6.38;;;;;;;;;;5095645;28;20484;-73
2023/08/20 09:48:47;;;;;;;7.70;6.60;;;;;;;;;;5112584;28;20039;-74
2023/08/20 09:51:15;;;;;;;7.20;6.60;;;;;;;;;;5130544;27;20039;-74
2023/08/20 09:53:49;;;;;;;7.43;6.70;;;;;;;;;;5112702;28;20071;-73
2023/08/20 09:56:30;;;;;;;6.82;6.30;;;;;;;;;;5112364;27;20039;-73
2023/08/20 09:59:00;;;;;;;7.32;6.82;;;;;;;;;;5112962;27;20113;-73
2023/08/20 10:01:27;;;;;;;9.23;6.57;;;;;;;;;;5130486;27;20032;-73
2023/08/20 10:03:53;;;;;;;6.53;6.00;;;;;;;;;;5134007;27;20050;-72
2023/08/20 10:06:19;;;;;;;7.78;6.55;;;;;;;;;;5134683;27;20382;-71
2023/08/20 10:08:46;;;;;;;8.55;7.63;;;;;;;;;;5134907;27;20031;-71
2023/08/20 10:11:12;;;;;;;6.78;6.18;;;;;;;;;;5116199;27;20499;-74
2023/08/20 10:13:38;;;;;;;6.75;6.25;;;;;;;;;;5134726;27;20033;-73
2023/08/20 10:16:05;;;;;;;9.60;6.63;;;;;;;;;;5134682;27;20403;-74
2023/08/20 10:18:31;;;;;;;7.70;6.15;;;;;;;;;;5134721;27;20122;-73
2023/08/20 10:20:58;;;;;;;5.70;5.30;;;;;;;;;;5116322;27;20574;-74
2023/08/20 10:23:24;;;;;;;6.00;5.40;;;;;;;;;;5116155;27;20039;-73
2023/08/20 10:25:51;;;;;;;5.97;5.38;;;;;;;;;;5134772;27;20039;-73
2023/08/20 10:28:21;;;;;;;5.90;5.50;;;;;;;;;;5134360;27;20405;-73
2023/08/20 10:30:47;;;;;;;;;;;;;;;;;;5134216;27;20077;-73
2023/08/20 10:33:14;;;;;;;5.47;5.10;;;;;;;;;;5134320;27;19911;-74
2023/08/20 10:35:40;;;;;;;5.82;5.40;;;;;;;;;;5134203;27;20051;-74
2023/08/20 10:38:16;;;;;;;6.57;6.05;;;;;;;;;;5134209;27;20137;-73
2023/08/20 10:40:52;;;;;;;6.72;5.97;;;;;;;;;;5133940;27;20409;-73
2023/08/20 10:43:26;;;;;;;7.13;6.03;;;;;;;;;;5134282;27;20469;-73
2023/08/20 10:46:10;;;;;;;6.10;5.70;;;;;;;;;;5134461;27;20042;-73
2023/08/20 10:48:38;;;;;;;5.68;4.97;;;;;;;;;;5134414;27;20038;-73
2023/08/20 10:51:10;;;;;;;6.60;5.97;;;;;;;;;;5118293;27;20035;-73
2023/08/20 10:53:37;;;;;;;6.75;6.25;;;;;;;;;;5141282;27;20027;-73
2023/08/20 10:56:09;;;;;;;9.85;6.50;;;;;;;;;;5119706;27;20051;-73
2023/08/20 10:58:35;;;;;;;7.65;7.05;;;;;;;;;;5133819;27;20023;-73
2023/08/20 11:01:18;;;;;;;7.95;7.15;;;;;;;;;;5115485;27;20034;-73
2023/08/20 11:03:51;;;;;;;8.65;7.05;;;;;;;;;;5133754;27;20118;-73
2023/08/20 11:06:18;;;;;;;7.18;6.68;;;;;;;;;;5098079;27;20035;-72
2023/08/20 11:08:45;;;;;;;7.35;6.65;;;;;;;;;;5133732;27;20043;-73
2023/08/20 11:11:11;;;;;;;8.65;7.18;;;;;;;;;;5115211;27;20046;-73
2023/08/20 11:13:37;;;;;;;10.80;6.95;;;;;;;;;;5132262;27;20035;-74
2023/08/20 11:16:03;;;;;;;7.32;6.72;;;;;;;;;;5133010;27;20046;-72
2023/08/20 11:18:33;;;;;;;7.45;6.90;;;;;;;;;;5133190;27;20047;-73
2023/08/20 11:20:59;;;;;;;7.47;6.90;;;;;;;;;;5133435;27;20042;-73
2023/08/20 11:23:25;;;;;;;10.40;6.97;;;;;;;;;;5133066;27;20035;-74
2023/08/20 11:25:52;;;;;;;7.35;6.85;;;;;;;;;;5133389;27;20035;-72
2023/08/20 11:28:19;;;;;;;7.28;6.68;;;;;;;;;;5114868;27;20027;-73
2023/08/20 11:30:45;;;;;;;7.10;6.38;;;;;;;;;;5114890;27;20043;-74
2023/08/20 11:33:11;;;;;;;10.15;6.80;;;;;;;;;;5114792;27;20401;-74
2023/08/20 11:35:37;;;;;;;8.32;6.65;;;;;;;;;;5133008;27;20046;-73
2023/08/20 11:38:03;;;;;;;7.72;7.03;;;;;;;;;;5133051;27;20042;-73
2023/08/20 11:40:30;;;;;;;7.60;6.95;;;;;;;;;;5133042;27;20038;-72
2023/08/20 11:42:56;;;;;;;9.27;7.18;;;;;;;;;;5133159;27;20047;-73
2023/08/20 11:45:23;;;;;;;12.23;7.40;;;;;;;;;;5133233;27;20121;-73
2023/08/20 11:47:49;;;;;;;7.97;7.43;;;;;;;;;;5132928;27;20125;-73
2023/08/20 11:50:15;;;;;;;7.88;7.28;;;;;;;;;;5114822;27;20042;-72
2023/08/20 11:52:41;;;;;;;9.20;7.40;;;;;;;;;;5132568;27;20107;-72
2023/08/20 11:55:09;;;;;;;10.57;7.60;;;;;;;;;;5132598;27;20058;-73
2023/08/20 11:57:35;;;;;;;9.75;7.75;;;;;;;;;;5132365;27;20069;-73
2023/08/20 12:00:13;;;;;;;8.98;8.30;;;;;;;;;;5132717;27;20481;-73
2023/08/20 12:02:42;;;;;;;21.23;8.35;;;;;;;;;;5132512;27;20447;-73
2023/08/20 12:05:08;;;;;;;12.73;7.75;;;;;;;;;;5132768;27;20031;-72
2023/08/20 12:07:38;;;;;;;8.98;7.70;;;;;;;;;;5132438;27;20530;-72
2023/08/20 12:10:20;;;;;;;7.82;6.93;;;;;;;;;;5132531;27;20042;-73
2023/08/20 12:12:47;;;;;;;5.43;4.85;;;;;;;;;;5132434;27;20720;-71
2023/08/20 12:15:13;;;;;;;8.70;4.50;;;;;;;;;;5114084;27;20054;-73
2023/08/20 12:17:39;;;;;;;7.30;4.10;;;;;;;;;;5132194;27;20046;-72
2023/08/20 12:20:12;;;;;;;5.18;3.53;;;;;;;;;;5132342;27;20096;-72
2023/08/20 12:22:39;;;;;;;7.18;4.13;;;;;;;;;;5113927;27;20043;-72
2023/08/20 12:25:06;;;;;;;13.80;4.97;;;;;;;;;;5131930;27;20091;-71
2023/08/20 12:27:33;;;;;;;9.27;4.72;;;;;;;;;;5132034;27;20038;-70
2023/08/20 12:29:59;;;;;;;7.70;5.70;;;;;;;;;;5132239;27;20035;-70
2023/08/20 12:32:25;;;;;;;11.98;6.53;;;;;;;;;;5131928;27;20096;-69
2023/08/20 12:34:51;;;;;;;9.27;6.57;;;;;;;;;;5132131;27;20035;-69
2023/08/20 12:37:17;;;;;;;8.68;6.55;;;;;;;;;;5131953;27;20046;-69
2023/08/20 12:39:44;;;;;;;8.65;5.78;;;;;;;;;;5113432;27;20123;-68
2023/08/20 12:42:10;;;;;;;7.05;6.38;;;;;;;;;;5132389;27;20067;-69
2023/08/20 12:44:36;;;;;;;8.98;7.45;;;;;;;;;;5132008;27;20391;-69
2023/08/20 12:47:01;;;;;;;15.40;7.13;;;;;;;;;;5131679;27;20043;-69
2023/08/20 12:49:27;;;;;;;8.45;7.40;;;;;;;;;;5131571;27;20031;-69
2023/08/20 12:51:53;;;;;;;10.52;7.45;;;;;;;;;;5131783;27;20031;-69
2023/08/20 12:54:19;;;;;;;9.15;7.13;;;;;;;;;;5131669;27;20114;-69
2023/08/20 12:56:45;;;;;;;10.50;7.20;;;;;;;;;;5111962;27;20047;-70
2023/08/20 12:59:11;;;;;;;9.23;7.60;;;;;;;;;;5131512;27;20046;-70
2023/08/20 13:01:37;;;;;;;8.95;6.28;;;;;;;;;;5131387;27;20050;-70
2023/08/20 13:04:04;;;;;;;7.32;6.68;;;;;;;;;;5131439;27;20076;-70
2023/08/20 13:06:30;;;;;;;9.85;5.75;;;;;;;;;;5124509;27;20130;-68
2023/08/20 13:08:57;;;;;;;6.78;5.95;;;;;;;;;;5119734;27;20123;-69
2023/08/20 13:11:24;;;;;;;6.20;5.60;;;;;;;;;;5095318;27;20465;-70
2023/08/20 13:13:50;;;;;;;6.82;6.13;;;;;;;;;;5112553;27;20035;-68
2023/08/20 13:16:18;;;;;;;9.25;6.53;;;;;;;;;;5130718;27;20035;-69
2023/08/20 13:18:44;;;;;;;7.90;6.40;;;;;;;;;;5129979;27;20039;-69
2023/08/20 13:21:10;;;;;;;6.90;6.20;;;;;;;;;;5130614;27;20102;-69
2023/08/20 13:23:36;;;;;;;7.35;6.20;;;;;;;;;;5115113;27;20502;-72
2023/08/20 13:26:02;;;;;;;10.55;9.30;;;;;;;;;;5130907;27;20163;-69
2023/08/20 13:28:28;;;;;;;7.63;6.93;;;;;;;;;;5112190;28;20039;-71
2023/08/20 13:30:54;;;;;;;9.90;5.38;;;;;;;;;;5130906;27;20386;-74
2023/08/20 13:33:20;;;;;;;5.97;5.38;;;;;;;;;;5112719;27;20031;-73
2023/08/20 13:35:46;;;;;;;7.13;5.90;;;;;;;;;;5130634;27;20043;-73
2023/08/20 13:38:13;;;;;;;6.78;5.03;;;;;;;;;;5130173;27;20457;-72
2023/08/20 13:40:40;;;;;;;6.28;5.78;;;;;;;;;;5130675;27;20389;-71
2023/08/20 13:43:06;;;;;;;6.57;5.70;;;;;;;;;;5106665;27;20035;-71
2023/08/20 13:45:32;;;;;;;8.40;6.70;;;;;;;;;;5103046;27;20126;-72
2023/08/20 13:47:59;;;;;;;4.78;4.25;;;;;;;;;;5132138;27;20505;-72
2023/08/20 13:50:24;;;;;;;5.20;4.80;;;;;;;;;;5111093;28;20060;-71
2023/08/20 13:52:50;;;;;;;5.95;4.60;;;;;;;;;;5124211;27;20024;-70
2023/08/20 13:55:16;;;;;;;4.40;4.00;;;;;;;;;;5127377;27;20040;-70
2023/08/20 13:57:42;;;;;;;5.60;4.20;;;;;;;;;;5095396;27;20039;-71
2023/08/20 14:00:12;;;;;;;5.05;4.53;;;;;;;;;;5132103;27;20555;-70
2023/08/20 14:02:38;;;;;;;7.88;5.28;;;;;;;;;;5094563;28;20039;-70
2023/08/20 14:05:04;;;;;;;14.30;12.80;;;;;;;;;;5131338;27;20038;-72
2023/08/20 14:07:30;;;;;;;5.07;4.68;;;;;;;;;;5128230;27;20031;-70
2023/08/20 14:09:56;;;;;;;6.35;4.40;;;;;;;;;;5129788;27;20124;-72
2023/08/20 14:12:23;;;;;;;4.53;4.22;;;;;;;;;;5130978;27;20409;-72
2023/08/20 14:14:49;;;;;;;5.22;4.25;;;;;;;;;;5130807;27;20055;-72
2023/08/20 14:17:15;;;;;;;4.93;4.53;;;;;;;;;;5108113;28;20058;-72
2023/08/20 14:19:41;;;;;;;4.82;4.43;;;;;;;;;;5128979;27;20028;-72
2023/08/20 14:22:07;;;;;;;5.20;4.80;;;;;;;;;;5128234;27;20059;-72
2023/08/20 14:24:33;;;;;;;8.43;5.35;;;;;;;;;;5128760;27;20031;-72
2023/08/20 14:26:59;;;;;;;6.70;5.20;;;;;;;;;;5110386;28;20413;-73